sensor_id;sensor_type;location;lat;lon;timestamp;P1;durP1;ratioP1;P2;durP2;ratioP2
6973;SDS011;3527;52.376;8.990;2023-03-07T00:01:37;35.70;;;18.93;;
6973;SDS011;3527;52.376;8.990;2023-03-07T00:04:04;35.60;;;19.13;;
6973;SDS011;3527;52.376;8.990;2023-03-07T00:06:31;37.53;;;20.63;;
6973;SDS011;3527;52.376;8.990;2023-03-07T00:08:58;37.23;;;18.73;;
6973;SDS011;3527;52.376;8.990;2023-03-07T00:11:27;38.57;;;19.37;;
6973;SDS011;3527;52.376;8.990;2023-03-07T00:13:54;39.40;;;19.10;;
6973;SDS011;3527;52.376;8.990;2023-03-07T00:16:22;39.93;;;19.17;;
6973;SDS011;3527;52.376;8.990;2023-03-07T00:18:50;36.40;;;19.10;;
6973;SDS011;3527;52.376;8.990;2023-03-07T00:21:18;35.80;;;17.93;;
6973;SDS011;3527;52.376;8.990;2023-03-07T00:23:47;35.03;;;17.97;;
6973;SDS011;3527;52.376;8.990;2023-03-07T00:26:15;33.93;;;18.97;;
6973;SDS011;3527;52.376;8.990;2023-03-07T00:28:47;35.07;;;16.87;;
6973;SDS011;3527;52.376;8.990;2023-03-07T00:31:16;34.20;;;18.87;;
6973;SDS011;3527;52.376;8.990;2023-03-07T00:33:44;30.67;;;17.67;;
6973;SDS011;3527;52.376;8.990;2023-03-07T00:36:15;35.00;;;18.70;;
6973;SDS011;3527;52.376;8.990;2023-03-07T00:38:44;29.57;;;16.80;;
6973;SDS011;3527;52.376;8.990;2023-03-07T00:41:12;34.07;;;17.07;;
6973;SDS011;3527;52.376;8.990;2023-03-07T00:43:40;31.50;;;16.93;;
6973;SDS011;3527;52.376;8.990;2023-03-07T00:46:07;34.60;;;17.10;;
6973;SDS011;3527;52.376;8.990;2023-03-07T00:48:35;31.80;;;17.73;;
6973;SDS011;3527;52.376;8.990;2023-03-07T00:51:04;31.93;;;16.63;;
6973;SDS011;3527;52.376;8.990;2023-03-07T00:53:33;31.60;;;17.37;;
6973;SDS011;3527;52.376;8.990;2023-03-07T00:58:29;28.77;;;16.17;;
6973;SDS011;3527;52.376;8.990;2023-03-07T01:00:58;33.63;;;17.87;;
6973;SDS011;3527;52.376;8.990;2023-03-07T01:03:25;30.93;;;16.60;;
6973;SDS011;3527;52.376;8.990;2023-03-07T01:05:52;28.57;;;15.90;;
6973;SDS011;3527;52.376;8.990;2023-03-07T01:08:20;33.00;;;18.07;;
6973;SDS011;3527;52.376;8.990;2023-03-07T01:10:47;28.90;;;16.53;;
6973;SDS011;3527;52.376;8.990;2023-03-07T01:13:15;31.97;;;17.13;;
6973;SDS011;3527;52.376;8.990;2023-03-07T01:15:43;30.93;;;17.03;;
6973;SDS011;3527;52.376;8.990;2023-03-07T01:18:10;29.20;;;15.30;;
6973;SDS011;3527;52.376;8.990;2023-03-07T01:20:37;30.23;;;16.60;;
6973;SDS011;3527;52.376;8.990;2023-03-07T01:23:04;27.03;;;15.20;;
6973;SDS011;3527;52.376;8.990;2023-03-07T01:25:35;28.77;;;16.53;;
6973;SDS011;3527;52.376;8.990;2023-03-07T01:28:06;24.93;;;15.37;;
6973;SDS011;3527;52.376;8.990;2023-03-07T01:30:33;27.50;;;16.43;;
6973;SDS011;3527;52.376;8.990;2023-03-07T01:33:00;28.40;;;16.87;;
6973;SDS011;3527;52.376;8.990;2023-03-07T01:35:27;27.27;;;16.60;;
6973;SDS011;3527;52.376;8.990;2023-03-07T01:37:55;27.73;;;15.37;;
6973;SDS011;3527;52.376;8.990;2023-03-07T01:40:22;26.03;;;16.40;;
6973;SDS011;3527;52.376;8.990;2023-03-07T01:42:49;26.77;;;15.83;;
6973;SDS011;3527;52.376;8.990;2023-03-07T01:48:00;24.57;;;15.23;;
6973;SDS011;3527;52.376;8.990;2023-03-07T01:50:27;24.50;;;13.87;;
6973;SDS011;3527;52.376;8.990;2023-03-07T01:52:55;26.30;;;14.53;;
6973;SDS011;3527;52.376;8.990;2023-03-07T01:55:32;24.67;;;14.90;;
6973;SDS011;3527;52.376;8.990;2023-03-07T01:58:05;25.60;;;16.23;;
6973;SDS011;3527;52.376;8.990;2023-03-07T02:00:34;24.73;;;14.87;;
6973;SDS011;3527;52.376;8.990;2023-03-07T02:05:52;22.57;;;14.37;;
6973;SDS011;3527;52.376;8.990;2023-03-07T02:08:24;24.03;;;14.50;;
6973;SDS011;3527;52.376;8.990;2023-03-07T02:10:53;25.30;;;14.97;;
6973;SDS011;3527;52.376;8.990;2023-03-07T02:13:20;25.87;;;14.53;;
6973;SDS011;3527;52.376;8.990;2023-03-07T02:15:48;23.83;;;14.13;;
6973;SDS011;3527;52.376;8.990;2023-03-07T02:18:19;24.90;;;16.10;;
6973;SDS011;3527;52.376;8.990;2023-03-07T02:21:15;25.47;;;14.73;;
6973;SDS011;3527;52.376;8.990;2023-03-07T02:26:46;24.67;;;15.17;;
6973;SDS011;3527;52.376;8.990;2023-03-07T02:29:14;26.17;;;16.87;;
6973;SDS011;3527;52.376;8.990;2023-03-07T02:31:41;25.97;;;15.37;;
6973;SDS011;3527;52.376;8.990;2023-03-07T02:34:18;26.23;;;15.20;;
6973;SDS011;3527;52.376;8.990;2023-03-07T02:36:51;25.27;;;15.37;;
6973;SDS011;3527;52.376;8.990;2023-03-07T02:39:22;22.93;;;15.40;;
6973;SDS011;3527;52.376;8.990;2023-03-07T02:41:51;28.77;;;16.63;;
6973;SDS011;3527;52.376;8.990;2023-03-07T02:44:21;25.47;;;16.73;;
6973;SDS011;3527;52.376;8.990;2023-03-07T02:46:48;24.33;;;15.60;;
6973;SDS011;3527;52.376;8.990;2023-03-07T02:49:15;27.40;;;17.70;;
6973;SDS011;3527;52.376;8.990;2023-03-07T02:51:43;27.80;;;16.93;;
6973;SDS011;3527;52.376;8.990;2023-03-07T02:54:10;30.87;;;18.43;;
6973;SDS011;3527;52.376;8.990;2023-03-07T02:56:36;27.33;;;17.43;;
6973;SDS011;3527;52.376;8.990;2023-03-07T02:59:04;29.80;;;17.20;;
6973;SDS011;3527;52.376;8.990;2023-03-07T03:01:31;29.73;;;17.97;;
6973;SDS011;3527;52.376;8.990;2023-03-07T03:03:58;30.70;;;18.40;;
6973;SDS011;3527;52.376;8.990;2023-03-07T03:06:25;31.30;;;18.37;;
6973;SDS011;3527;52.376;8.990;2023-03-07T03:08:52;30.07;;;18.27;;
6973;SDS011;3527;52.376;8.990;2023-03-07T03:11:18;29.17;;;17.73;;
6973;SDS011;3527;52.376;8.990;2023-03-07T03:13:45;28.77;;;17.07;;
6973;SDS011;3527;52.376;8.990;2023-03-07T03:16:12;27.57;;;17.53;;
6973;SDS011;3527;52.376;8.990;2023-03-07T03:18:39;30.87;;;18.57;;
6973;SDS011;3527;52.376;8.990;2023-03-07T03:21:07;30.77;;;17.93;;
6973;SDS011;3527;52.376;8.990;2023-03-07T03:23:35;33.00;;;19.60;;
6973;SDS011;3527;52.376;8.990;2023-03-07T03:26:03;32.63;;;18.40;;
6973;SDS011;3527;52.376;8.990;2023-03-07T03:28:33;34.73;;;20.30;;
6973;SDS011;3527;52.376;8.990;2023-03-07T03:31:03;36.97;;;20.03;;
6973;SDS011;3527;52.376;8.990;2023-03-07T03:33:36;38.03;;;20.07;;
6973;SDS011;3527;52.376;8.990;2023-03-07T03:36:07;34.10;;;19.67;;
6973;SDS011;3527;52.376;8.990;2023-03-07T03:38:35;36.30;;;21.03;;
6973;SDS011;3527;52.376;8.990;2023-03-07T03:41:03;31.57;;;19.27;;
6973;SDS011;3527;52.376;8.990;2023-03-07T03:43:31;38.27;;;20.97;;
6973;SDS011;3527;52.376;8.990;2023-03-07T03:45:57;37.13;;;21.90;;
6973;SDS011;3527;52.376;8.990;2023-03-07T03:48:25;34.77;;;19.77;;
6973;SDS011;3527;52.376;8.990;2023-03-07T03:50:59;32.53;;;19.10;;
6973;SDS011;3527;52.376;8.990;2023-03-07T03:53:31;27.00;;;15.93;;
6973;SDS011;3527;52.376;8.990;2023-03-07T03:56:03;27.03;;;16.40;;
6973;SDS011;3527;52.376;8.990;2023-03-07T03:58:35;27.73;;;15.60;;
6973;SDS011;3527;52.376;8.990;2023-03-07T04:01:02;28.87;;;16.27;;
6973;SDS011;3527;52.376;8.990;2023-03-07T04:03:31;27.47;;;16.20;;
6973;SDS011;3527;52.376;8.990;2023-03-07T04:06:02;30.43;;;16.70;;
6973;SDS011;3527;52.376;8.990;2023-03-07T04:08:31;26.30;;;16.03;;
6973;SDS011;3527;52.376;8.990;2023-03-07T04:10:58;26.87;;;15.57;;
6973;SDS011;3527;52.376;8.990;2023-03-07T04:13:25;27.43;;;14.97;;
6973;SDS011;3527;52.376;8.990;2023-03-07T04:15:53;26.80;;;15.23;;
6973;SDS011;3527;52.376;8.990;2023-03-07T04:18:20;23.80;;;13.83;;
6973;SDS011;3527;52.376;8.990;2023-03-07T04:20:48;16.80;;;9.10;;
6973;SDS011;3527;52.376;8.990;2023-03-07T04:23:17;14.10;;;8.03;;
6973;SDS011;3527;52.376;8.990;2023-03-07T04:25:46;15.80;;;7.53;;
6973;SDS011;3527;52.376;8.990;2023-03-07T04:28:17;9.53;;;6.17;;
6973;SDS011;3527;52.376;8.990;2023-03-07T04:30:44;11.23;;;6.17;;
6973;SDS011;3527;52.376;8.990;2023-03-07T04:33:12;7.07;;;4.20;;
6973;SDS011;3527;52.376;8.990;2023-03-07T04:35:39;8.43;;;4.67;;
6973;SDS011;3527;52.376;8.990;2023-03-07T04:38:06;8.43;;;4.33;;
6973;SDS011;3527;52.376;8.990;2023-03-07T04:40:33;6.50;;;4.43;;
6973;SDS011;3527;52.376;8.990;2023-03-07T04:43:01;5.50;;;3.60;;
6973;SDS011;3527;52.376;8.990;2023-03-07T04:45:29;5.87;;;3.40;;
6973;SDS011;3527;52.376;8.990;2023-03-07T04:47:57;7.30;;;3.83;;
6973;SDS011;3527;52.376;8.990;2023-03-07T04:50:24;7.13;;;3.07;;
6973;SDS011;3527;52.376;8.990;2023-03-07T04:52:51;5.10;;;2.50;;
6973;SDS011;3527;52.376;8.990;2023-03-07T04:55:18;3.40;;;2.10;;
6973;SDS011;3527;52.376;8.990;2023-03-07T04:57:44;4.57;;;2.50;;
6973;SDS011;3527;52.376;8.990;2023-03-07T05:00:12;5.17;;;2.87;;
6973;SDS011;3527;52.376;8.990;2023-03-07T05:02:39;6.57;;;2.50;;
6973;SDS011;3527;52.376;8.990;2023-03-07T05:05:06;5.97;;;2.67;;
6973;SDS011;3527;52.376;8.990;2023-03-07T05:07:33;5.40;;;2.93;;
6973;SDS011;3527;52.376;8.990;2023-03-07T05:10:00;7.07;;;2.77;;
6973;SDS011;3527;52.376;8.990;2023-03-07T05:12:27;6.33;;;3.37;;
6973;SDS011;3527;52.376;8.990;2023-03-07T05:14:54;6.77;;;3.53;;
6973;SDS011;3527;52.376;8.990;2023-03-07T05:17:20;9.53;;;3.07;;
6973;SDS011;3527;52.376;8.990;2023-03-07T05:19:47;8.83;;;3.37;;
6973;SDS011;3527;52.376;8.990;2023-03-07T05:22:14;8.73;;;2.90;;
6973;SDS011;3527;52.376;8.990;2023-03-07T05:24:40;9.73;;;4.30;;
6973;SDS011;3527;52.376;8.990;2023-03-07T05:27:07;7.13;;;2.77;;
6973;SDS011;3527;52.376;8.990;2023-03-07T05:29:34;8.70;;;3.10;;
6973;SDS011;3527;52.376;8.990;2023-03-07T05:32:01;7.63;;;2.67;;
6973;SDS011;3527;52.376;8.990;2023-03-07T05:34:28;5.40;;;2.70;;
6973;SDS011;3527;52.376;8.990;2023-03-07T05:36:54;7.63;;;3.03;;
6973;SDS011;3527;52.376;8.990;2023-03-07T05:39:23;7.43;;;2.60;;
6973;SDS011;3527;52.376;8.990;2023-03-07T05:41:52;6.27;;;2.70;;
6973;SDS011;3527;52.376;8.990;2023-03-07T05:44:20;8.70;;;2.67;;
6973;SDS011;3527;52.376;8.990;2023-03-07T05:46:47;10.03;;;3.50;;
6973;SDS011;3527;52.376;8.990;2023-03-07T05:49:13;5.13;;;2.60;;
6973;SDS011;3527;52.376;8.990;2023-03-07T05:51:40;6.73;;;3.17;;
6973;SDS011;3527;52.376;8.990;2023-03-07T05:54:07;7.90;;;2.70;;
6973;SDS011;3527;52.376;8.990;2023-03-07T05:56:34;8.47;;;2.97;;
6973;SDS011;3527;52.376;8.990;2023-03-07T05:59:00;7.70;;;3.03;;
6973;SDS011;3527;52.376;8.990;2023-03-07T06:01:27;8.17;;;2.83;;
6973;SDS011;3527;52.376;8.990;2023-03-07T06:03:54;5.80;;;2.73;;
6973;SDS011;3527;52.376;8.990;2023-03-07T06:06:21;7.13;;;2.73;;
6973;SDS011;3527;52.376;8.990;2023-03-07T06:08:47;8.43;;;2.43;;
6973;SDS011;3527;52.376;8.990;2023-03-07T06:11:14;6.70;;;3.10;;
6973;SDS011;3527;52.376;8.990;2023-03-07T06:13:41;9.50;;;3.10;;
6973;SDS011;3527;52.376;8.990;2023-03-07T06:16:07;7.90;;;3.10;;
6973;SDS011;3527;52.376;8.990;2023-03-07T06:18:34;9.20;;;3.83;;
6973;SDS011;3527;52.376;8.990;2023-03-07T06:21:02;10.47;;;4.83;;
6973;SDS011;3527;52.376;8.990;2023-03-07T06:23:31;8.10;;;4.73;;
6973;SDS011;3527;52.376;8.990;2023-03-07T06:26:00;14.23;;;5.57;;
6973;SDS011;3527;52.376;8.990;2023-03-07T06:28:27;12.97;;;5.90;;
6973;SDS011;3527;52.376;8.990;2023-03-07T06:30:58;12.63;;;6.70;;
6973;SDS011;3527;52.376;8.990;2023-03-07T06:33:24;12.50;;;6.63;;
6973;SDS011;3527;52.376;8.990;2023-03-07T06:35:51;16.57;;;7.17;;
6973;SDS011;3527;52.376;8.990;2023-03-07T06:38:18;12.07;;;6.87;;
6973;SDS011;3527;52.376;8.990;2023-03-07T06:40:52;12.57;;;6.90;;
6973;SDS011;3527;52.376;8.990;2023-03-07T06:43:20;12.37;;;6.70;;
6973;SDS011;3527;52.376;8.990;2023-03-07T06:45:47;12.03;;;6.67;;
6973;SDS011;3527;52.376;8.990;2023-03-07T06:48:13;10.80;;;5.40;;
6973;SDS011;3527;52.376;8.990;2023-03-07T06:50:40;8.33;;;4.57;;
6973;SDS011;3527;52.376;8.990;2023-03-07T06:53:07;8.13;;;4.23;;
6973;SDS011;3527;52.376;8.990;2023-03-07T06:55:34;7.50;;;3.70;;
6973;SDS011;3527;52.376;8.990;2023-03-07T06:58:00;6.60;;;3.27;;
6973;SDS011;3527;52.376;8.990;2023-03-07T07:00:27;6.80;;;3.20;;
6973;SDS011;3527;52.376;8.990;2023-03-07T07:02:54;6.27;;;3.30;;
6973;SDS011;3527;52.376;8.990;2023-03-07T07:05:21;7.97;;;3.10;;
6973;SDS011;3527;52.376;8.990;2023-03-07T07:07:48;6.33;;;3.10;;
6973;SDS011;3527;52.376;8.990;2023-03-07T07:10:15;6.00;;;2.30;;
6973;SDS011;3527;52.376;8.990;2023-03-07T07:12:42;8.47;;;2.80;;
6973;SDS011;3527;52.376;8.990;2023-03-07T07:15:09;5.43;;;2.60;;
6973;SDS011;3527;52.376;8.990;2023-03-07T07:17:35;6.27;;;3.00;;
6973;SDS011;3527;52.376;8.990;2023-03-07T07:20:04;6.97;;;2.73;;
6973;SDS011;3527;52.376;8.990;2023-03-07T07:22:32;6.80;;;2.93;;
6973;SDS011;3527;52.376;8.990;2023-03-07T07:24:59;4.00;;;2.57;;
6973;SDS011;3527;52.376;8.990;2023-03-07T07:27:26;4.37;;;2.40;;
6973;SDS011;3527;52.376;8.990;2023-03-07T07:29:54;7.50;;;2.60;;
6973;SDS011;3527;52.376;8.990;2023-03-07T07:32:21;7.60;;;2.50;;
6973;SDS011;3527;52.376;8.990;2023-03-07T07:34:48;3.97;;;2.20;;
6973;SDS011;3527;52.376;8.990;2023-03-07T07:37:15;5.53;;;1.80;;
6973;SDS011;3527;52.376;8.990;2023-03-07T07:39:42;3.40;;;1.63;;
6973;SDS011;3527;52.376;8.990;2023-03-07T07:42:10;5.03;;;1.67;;
6973;SDS011;3527;52.376;8.990;2023-03-07T07:44:37;6.30;;;1.57;;
6973;SDS011;3527;52.376;8.990;2023-03-07T07:47:04;4.90;;;1.63;;
6973;SDS011;3527;52.376;8.990;2023-03-07T07:49:31;2.17;;;1.40;;
6973;SDS011;3527;52.376;8.990;2023-03-07T07:51:58;8.13;;;1.60;;
6973;SDS011;3527;52.376;8.990;2023-03-07T07:54:24;4.83;;;1.47;;
6973;SDS011;3527;52.376;8.990;2023-03-07T07:56:51;5.60;;;1.57;;
6973;SDS011;3527;52.376;8.990;2023-03-07T07:59:18;5.50;;;1.50;;
6973;SDS011;3527;52.376;8.990;2023-03-07T08:01:45;5.10;;;1.40;;
6973;SDS011;3527;52.376;8.990;2023-03-07T08:04:12;4.03;;;1.50;;
6973;SDS011;3527;52.376;8.990;2023-03-07T08:06:39;3.33;;;1.33;;
6973;SDS011;3527;52.376;8.990;2023-03-07T08:09:06;4.17;;;1.27;;
6973;SDS011;3527;52.376;8.990;2023-03-07T08:11:32;4.40;;;1.40;;
6973;SDS011;3527;52.376;8.990;2023-03-07T08:14:00;2.77;;;1.53;;
6973;SDS011;3527;52.376;8.990;2023-03-07T08:16:28;6.00;;;1.60;;
6973;SDS011;3527;52.376;8.990;2023-03-07T08:18:55;5.47;;;1.53;;
6973;SDS011;3527;52.376;8.990;2023-03-07T08:21:23;4.87;;;1.43;;
6973;SDS011;3527;52.376;8.990;2023-03-07T08:23:51;5.30;;;1.53;;
6973;SDS011;3527;52.376;8.990;2023-03-07T08:26:19;8.10;;;1.70;;
6973;SDS011;3527;52.376;8.990;2023-03-07T08:28:46;4.07;;;1.27;;
6973;SDS011;3527;52.376;8.990;2023-03-07T08:31:14;2.70;;;1.20;;
6973;SDS011;3527;52.376;8.990;2023-03-07T08:33:44;4.97;;;1.60;;
6973;SDS011;3527;52.376;8.990;2023-03-07T08:36:12;2.93;;;1.60;;
6973;SDS011;3527;52.376;8.990;2023-03-07T08:38:39;3.90;;;1.50;;
6973;SDS011;3527;52.376;8.990;2023-03-07T08:41:07;4.73;;;1.40;;
6973;SDS011;3527;52.376;8.990;2023-03-07T08:43:35;3.07;;;1.50;;
6973;SDS011;3527;52.376;8.990;2023-03-07T08:46:04;6.30;;;2.00;;
6973;SDS011;3527;52.376;8.990;2023-03-07T08:48:32;5.97;;;1.73;;
6973;SDS011;3527;52.376;8.990;2023-03-07T08:51:06;3.53;;;1.60;;
6973;SDS011;3527;52.376;8.990;2023-03-07T08:53:37;3.53;;;1.90;;
6973;SDS011;3527;52.376;8.990;2023-03-07T08:56:05;5.23;;;2.00;;
6973;SDS011;3527;52.376;8.990;2023-03-07T08:58:35;5.33;;;1.73;;
6973;SDS011;3527;52.376;8.990;2023-03-07T09:01:02;5.23;;;1.90;;
6973;SDS011;3527;52.376;8.990;2023-03-07T09:03:30;3.67;;;1.60;;
6973;SDS011;3527;52.376;8.990;2023-03-07T09:05:57;2.93;;;1.67;;
6973;SDS011;3527;52.376;8.990;2023-03-07T09:08:23;4.63;;;1.53;;
6973;SDS011;3527;52.376;8.990;2023-03-07T09:10:50;2.90;;;1.30;;
6973;SDS011;3527;52.376;8.990;2023-03-07T09:13:17;4.60;;;1.60;;
6973;SDS011;3527;52.376;8.990;2023-03-07T09:15:44;4.90;;;1.50;;
6973;SDS011;3527;52.376;8.990;2023-03-07T09:18:11;5.23;;;1.67;;
6973;SDS011;3527;52.376;8.990;2023-03-07T09:20:38;5.27;;;1.80;;
6973;SDS011;3527;52.376;8.990;2023-03-07T09:23:05;4.13;;;1.50;;
6973;SDS011;3527;52.376;8.990;2023-03-07T09:25:33;2.93;;;1.47;;
6973;SDS011;3527;52.376;8.990;2023-03-07T09:28:00;2.43;;;1.50;;
6973;SDS011;3527;52.376;8.990;2023-03-07T09:30:26;4.33;;;1.90;;
6973;SDS011;3527;52.376;8.990;2023-03-07T09:32:54;5.33;;;2.13;;
6973;SDS011;3527;52.376;8.990;2023-03-07T09:35:21;4.83;;;1.37;;
6973;SDS011;3527;52.376;8.990;2023-03-07T09:37:48;4.67;;;1.57;;
6973;SDS011;3527;52.376;8.990;2023-03-07T09:40:16;3.03;;;1.40;;
6973;SDS011;3527;52.376;8.990;2023-03-07T09:45:43;5.60;;;1.40;;
6973;SDS011;3527;52.376;8.990;2023-03-07T10:02:00;5.50;;;1.70;;
6973;SDS011;3527;52.376;8.990;2023-03-07T10:04:57;4.77;;;2.00;;
6973;SDS011;3527;52.376;8.990;2023-03-07T10:07:27;5.83;;;1.87;;
6973;SDS011;3527;52.376;8.990;2023-03-07T10:09:56;4.63;;;2.07;;
6973;SDS011;3527;52.376;8.990;2023-03-07T10:15:31;8.67;;;2.03;;
6973;SDS011;3527;52.376;8.990;2023-03-07T10:25:32;4.23;;;2.20;;
6973;SDS011;3527;52.376;8.990;2023-03-07T10:28:12;5.40;;;1.87;;
6973;SDS011;3527;52.376;8.990;2023-03-07T10:30:47;4.20;;;2.00;;
6973;SDS011;3527;52.376;8.990;2023-03-07T10:33:17;5.50;;;2.07;;
6973;SDS011;3527;52.376;8.990;2023-03-07T10:35:50;3.23;;;1.67;;
6973;SDS011;3527;52.376;8.990;2023-03-07T10:41:08;2.10;;;1.70;;
6973;SDS011;3527;52.376;8.990;2023-03-07T10:43:40;3.23;;;1.63;;
6973;SDS011;3527;52.376;8.990;2023-03-07T10:48:52;2.80;;;1.50;;
6973;SDS011;3527;52.376;8.990;2023-03-07T10:54:27;2.73;;;2.00;;
6973;SDS011;3527;52.376;8.990;2023-03-07T10:57:08;4.50;;;2.10;;
6973;SDS011;3527;52.376;8.990;2023-03-07T10:59:42;3.00;;;2.30;;
6973;SDS011;3527;52.376;8.990;2023-03-07T11:02:30;4.77;;;1.90;;
6973;SDS011;3527;52.376;8.990;2023-03-07T11:05:01;5.53;;;2.03;;
6973;SDS011;3527;52.376;8.990;2023-03-07T11:07:43;5.53;;;2.07;;
6973;SDS011;3527;52.376;8.990;2023-03-07T11:12:55;3.40;;;1.80;;
6973;SDS011;3527;52.376;8.990;2023-03-07T11:15:22;4.57;;;2.20;;
6973;SDS011;3527;52.376;8.990;2023-03-07T11:17:50;4.03;;;1.97;;
6973;SDS011;3527;52.376;8.990;2023-03-07T11:20:22;5.30;;;1.97;;
6973;SDS011;3527;52.376;8.990;2023-03-07T11:26:13;5.10;;;2.10;;
6973;SDS011;3527;52.376;8.990;2023-03-07T11:28:42;4.53;;;1.73;;
6973;SDS011;3527;52.376;8.990;2023-03-07T11:31:29;3.20;;;1.53;;
6973;SDS011;3527;52.376;8.990;2023-03-07T11:34:45;3.53;;;1.63;;
6973;SDS011;3527;52.376;8.990;2023-03-07T11:36:53;4.47;;;1.70;;
6973;SDS011;3527;52.376;8.990;2023-03-07T11:42:17;3.67;;;1.83;;
6973;SDS011;3527;52.376;8.990;2023-03-07T11:44:53;2.70;;;1.50;;
6973;SDS011;3527;52.376;8.990;2023-03-07T11:47:51;4.40;;;2.40;;
6973;SDS011;3527;52.376;8.990;2023-03-07T11:50:39;1.70;;;1.50;;
6973;SDS011;3527;52.376;8.990;2023-03-07T12:16:55;3.17;;;1.43;;
6973;SDS011;3527;52.376;8.990;2023-03-07T12:27:35;4.33;;;1.60;;
6973;SDS011;3527;52.376;8.990;2023-03-07T12:30:06;4.73;;;2.20;;
6973;SDS011;3527;52.376;8.990;2023-03-07T12:32:41;3.67;;;1.77;;
6973;SDS011;3527;52.376;8.990;2023-03-07T12:38:08;3.23;;;1.87;;
6973;SDS011;3527;52.376;8.990;2023-03-07T12:40:41;3.33;;;1.80;;
6973;SDS011;3527;52.376;8.990;2023-03-07T12:43:26;5.40;;;2.37;;
6973;SDS011;3527;52.376;8.990;2023-03-07T12:46:08;2.83;;;1.83;;
6973;SDS011;3527;52.376;8.990;2023-03-07T12:48:39;4.70;;;2.30;;
6973;SDS011;3527;52.376;8.990;2023-03-07T12:51:32;3.53;;;2.20;;
6973;SDS011;3527;52.376;8.990;2023-03-07T12:54:09;5.37;;;2.97;;
6973;SDS011;3527;52.376;8.990;2023-03-07T12:59:15;4.73;;;4.13;;
6973;SDS011;3527;52.376;8.990;2023-03-07T13:01:54;6.57;;;4.20;;
6973;SDS011;3527;52.376;8.990;2023-03-07T13:04:32;4.57;;;3.47;;
6973;SDS011;3527;52.376;8.990;2023-03-07T13:07:11;4.20;;;3.00;;
6973;SDS011;3527;52.376;8.990;2023-03-07T13:09:43;4.77;;;2.73;;
6973;SDS011;3527;52.376;8.990;2023-03-07T13:14:39;4.80;;;2.50;;
6973;SDS011;3527;52.376;8.990;2023-03-07T13:17:08;3.27;;;1.10;;
6973;SDS011;3527;52.376;8.990;2023-03-07T13:24:41;3.30;;;1.23;;
6973;SDS011;3527;52.376;8.990;2023-03-07T13:27:16;1.70;;;1.03;;
6973;SDS011;3527;52.376;8.990;2023-03-07T13:30:03;4.00;;;1.00;;
6973;SDS011;3527;52.376;8.990;2023-03-07T13:43:33;5.87;;;1.80;;
6973;SDS011;3527;52.376;8.990;2023-03-07T13:46:01;3.63;;;1.50;;
6973;SDS011;3527;52.376;8.990;2023-03-07T13:55:56;3.50;;;0.87;;
6973;SDS011;3527;52.376;8.990;2023-03-07T13:58:24;4.50;;;1.27;;
6973;SDS011;3527;52.376;8.990;2023-03-07T14:03:41;6.73;;;1.50;;
6973;SDS011;3527;52.376;8.990;2023-03-07T14:06:14;6.60;;;1.50;;
6973;SDS011;3527;52.376;8.990;2023-03-07T14:08:44;4.80;;;1.83;;
6973;SDS011;3527;52.376;8.990;2023-03-07T14:12:03;4.80;;;1.43;;
6973;SDS011;3527;52.376;8.990;2023-03-07T14:25:25;7.37;;;1.53;;
6973;SDS011;3527;52.376;8.990;2023-03-07T14:27:57;5.83;;;1.70;;
6973;SDS011;3527;52.376;8.990;2023-03-07T14:30:54;3.93;;;1.67;;
6973;SDS011;3527;52.376;8.990;2023-03-07T14:33:36;4.87;;;1.60;;
6973;SDS011;3527;52.376;8.990;2023-03-07T14:36:17;7.40;;;1.57;;
6973;SDS011;3527;52.376;8.990;2023-03-07T14:38:47;9.63;;;1.80;;
6973;SDS011;3527;52.376;8.990;2023-03-07T14:41:19;9.37;;;1.80;;
6973;SDS011;3527;52.376;8.990;2023-03-07T14:52:25;4.87;;;1.33;;
6973;SDS011;3527;52.376;8.990;2023-03-07T14:55:00;7.70;;;1.80;;
6973;SDS011;3527;52.376;8.990;2023-03-07T14:57:33;7.30;;;2.00;;
6973;SDS011;3527;52.376;8.990;2023-03-07T15:00:04;6.13;;;1.67;;
6973;SDS011;3527;52.376;8.990;2023-03-07T15:02:32;7.17;;;1.63;;
6973;SDS011;3527;52.376;8.990;2023-03-07T15:04:59;7.90;;;1.87;;
6973;SDS011;3527;52.376;8.990;2023-03-07T15:07:26;7.43;;;1.43;;
6973;SDS011;3527;52.376;8.990;2023-03-07T15:09:53;8.23;;;1.80;;
6973;SDS011;3527;52.376;8.990;2023-03-07T15:12:21;3.93;;;1.50;;
6973;SDS011;3527;52.376;8.990;2023-03-07T15:14:54;5.87;;;1.77;;
6973;SDS011;3527;52.376;8.990;2023-03-07T15:17:27;9.10;;;1.90;;
6973;SDS011;3527;52.376;8.990;2023-03-07T15:20:00;3.03;;;1.60;;
6973;SDS011;3527;52.376;8.990;2023-03-07T15:22:33;6.83;;;1.70;;
6973;SDS011;3527;52.376;8.990;2023-03-07T15:25:18;5.97;;;1.57;;
6973;SDS011;3527;52.376;8.990;2023-03-07T15:28:00;4.10;;;1.50;;
6973;SDS011;3527;52.376;8.990;2023-03-07T15:30:31;12.30;;;2.03;;
6973;SDS011;3527;52.376;8.990;2023-03-07T15:33:10;9.50;;;1.87;;
6973;SDS011;3527;52.376;8.990;2023-03-07T15:35:44;4.93;;;2.13;;
6973;SDS011;3527;52.376;8.990;2023-03-07T15:38:20;4.93;;;1.67;;
6973;SDS011;3527;52.376;8.990;2023-03-07T15:40:49;6.23;;;2.13;;
6973;SDS011;3527;52.376;8.990;2023-03-07T15:43:21;4.37;;;1.80;;
6973;SDS011;3527;52.376;8.990;2023-03-07T15:46:01;7.53;;;1.80;;
6973;SDS011;3527;52.376;8.990;2023-03-07T15:51:05;4.67;;;1.97;;
6973;SDS011;3527;52.376;8.990;2023-03-07T15:53:38;3.50;;;1.90;;
6973;SDS011;3527;52.376;8.990;2023-03-07T15:56:27;5.77;;;1.80;;
6973;SDS011;3527;52.376;8.990;2023-03-07T15:59:00;7.03;;;1.90;;
6973;SDS011;3527;52.376;8.990;2023-03-07T16:01:30;8.23;;;2.10;;
6973;SDS011;3527;52.376;8.990;2023-03-07T16:03:58;9.00;;;2.23;;
6973;SDS011;3527;52.376;8.990;2023-03-07T16:08:56;4.20;;;1.70;;
6973;SDS011;3527;52.376;8.990;2023-03-07T16:11:22;10.47;;;2.83;;
6973;SDS011;3527;52.376;8.990;2023-03-07T16:13:49;5.93;;;2.20;;
6973;SDS011;3527;52.376;8.990;2023-03-07T16:16:23;4.77;;;2.20;;
6973;SDS011;3527;52.376;8.990;2023-03-07T16:18:52;4.60;;;1.93;;
6973;SDS011;3527;52.376;8.990;2023-03-07T16:21:22;3.90;;;1.90;;
6973;SDS011;3527;52.376;8.990;2023-03-07T16:23:50;5.73;;;1.90;;
6973;SDS011;3527;52.376;8.990;2023-03-07T16:26:19;4.80;;;2.00;;
6973;SDS011;3527;52.376;8.990;2023-03-07T16:28:48;3.70;;;2.33;;
6973;SDS011;3527;52.376;8.990;2023-03-07T16:31:16;4.37;;;2.30;;
6973;SDS011;3527;52.376;8.990;2023-03-07T16:33:43;3.60;;;1.47;;
6973;SDS011;3527;52.376;8.990;2023-03-07T16:36:11;2.90;;;1.63;;
6973;SDS011;3527;52.376;8.990;2023-03-07T16:38:39;5.77;;;1.80;;
6973;SDS011;3527;52.376;8.990;2023-03-07T16:41:13;3.03;;;1.40;;
6973;SDS011;3527;52.376;8.990;2023-03-07T16:43:40;3.10;;;1.10;;
6973;SDS011;3527;52.376;8.990;2023-03-07T16:46:14;3.10;;;1.10;;
6973;SDS011;3527;52.376;8.990;2023-03-07T16:48:43;2.47;;;0.90;;
6973;SDS011;3527;52.376;8.990;2023-03-07T16:51:14;2.33;;;1.30;;
6973;SDS011;3527;52.376;8.990;2023-03-07T16:53:43;2.43;;;1.30;;
6973;SDS011;3527;52.376;8.990;2023-03-07T16:56:29;2.90;;;1.30;;
6973;SDS011;3527;52.376;8.990;2023-03-07T16:58:59;4.13;;;1.40;;
6973;SDS011;3527;52.376;8.990;2023-03-07T17:01:26;1.80;;;1.23;;
6973;SDS011;3527;52.376;8.990;2023-03-07T17:03:53;3.77;;;1.20;;
6973;SDS011;3527;52.376;8.990;2023-03-07T17:06:23;5.03;;;1.43;;
6973;SDS011;3527;52.376;8.990;2023-03-07T17:09:04;5.07;;;1.23;;
6973;SDS011;3527;52.376;8.990;2023-03-07T17:11:32;4.40;;;1.80;;
6973;SDS011;3527;52.376;8.990;2023-03-07T17:13:59;3.73;;;1.37;;
6973;SDS011;3527;52.376;8.990;2023-03-07T17:16:38;4.97;;;1.63;;
6973;SDS011;3527;52.376;8.990;2023-03-07T17:19:18;4.10;;;1.40;;
6973;SDS011;3527;52.376;8.990;2023-03-07T17:21:52;3.00;;;1.43;;
6973;SDS011;3527;52.376;8.990;2023-03-07T17:24:19;2.60;;;1.30;;
6973;SDS011;3527;52.376;8.990;2023-03-07T17:26:46;6.23;;;1.53;;
6973;SDS011;3527;52.376;8.990;2023-03-07T17:29:25;5.23;;;1.63;;
6973;SDS011;3527;52.376;8.990;2023-03-07T17:31:58;7.13;;;2.03;;
6973;SDS011;3527;52.376;8.990;2023-03-07T17:34:26;4.53;;;1.30;;
6973;SDS011;3527;52.376;8.990;2023-03-07T17:36:57;5.43;;;1.30;;
6973;SDS011;3527;52.376;8.990;2023-03-07T17:39:27;4.37;;;1.47;;
6973;SDS011;3527;52.376;8.990;2023-03-07T17:41:56;6.87;;;1.50;;
6973;SDS011;3527;52.376;8.990;2023-03-07T17:44:24;7.13;;;1.50;;
6973;SDS011;3527;52.376;8.990;2023-03-07T17:46:51;5.23;;;1.77;;
6973;SDS011;3527;52.376;8.990;2023-03-07T17:49:19;4.40;;;1.57;;
6973;SDS011;3527;52.376;8.990;2023-03-07T17:51:46;4.93;;;1.80;;